PWSweather.com
Personal Weather Stations
Station Observations
CALONGE
CalongeES 17251

CalongeES 17251

Lat: 41.85972222, Lon: 3.077777778

Elevation: 16

Station Type: Oregon WMR928N

www.calonge-meteoweb.com

High Low Average
Temperature 70.3°F21.3°C 40.8°F4.9°C 57.0°F13.9°C
Dew Point 28.2°F-2.1°C 18.4°F-7.6°C 23.9°F-4.5°C
Winds 11.4 mph 18.3 kmh Calm Calm 6.0 mph SW9.7 kmh SW
Wind Gusts 16.1 mph25.9 kmh -- 9.0 mph14.5 kmh
Humidity 60% 17% 29%
Pressure 30.36 in1028.1 mb 30.27 in1025.1 mb -
Precipitation 0.00 in0.0 mm - -
Hour Temp Dew Point Humidity Winds Wind Gusts Pressure Precip Precip Rate Daily Precip Total
12:00 AM 40.8°F4.9°C 28.0°F-2.2°C 60% 5.9 mph W9.5 kmh W 7.6 mph12.2 kmh 30.33 in1027.1 mb 0.00 in0.0 mm 0.00 in0.0 mm 0.00 in0.0 mm
12:15 AM 42.1°F5.6°C 27.1°F-2.7°C 55% 7.0 mph W11.3 kmh W 8.2 mph13.2 kmh 30.33 in1027.1 mb 0.00 in0.0 mm 0.00 in0.0 mm 0.00 in0.0 mm
12:30 AM 42.3°F5.7°C 26.8°F-2.9°C 54% 6.4 mph W10.3 kmh W 7.6 mph12.2 kmh 30.33 in1027.1 mb 0.00 in0.0 mm 0.00 in0.0 mm 0.00 in0.0 mm
12:45 AM 42.3°F5.7°C 26.8°F-2.9°C 54% 5.3 mph W8.5 kmh W 7.6 mph12.2 kmh 30.33 in1027.1 mb 0.00 in0.0 mm 0.00 in0.0 mm 0.00 in0.0 mm
01:00 AM 42.1°F5.6°C 26.6°F-3.0°C 54% 5.9 mph WNW9.5 kmh WNW 7.0 mph11.3 kmh 30.33 in1027.1 mb 0.00 in0.0 mm 0.00 in0.0 mm 0.00 in0.0 mm
01:15 AM 42.8°F6.0°C 26.4°F-3.1°C 52% 6.4 mph WNW10.3 kmh WNW 7.0 mph11.3 kmh 30.33 in1027.1 mb 0.00 in0.0 mm 0.00 in0.0 mm 0.00 in0.0 mm
01:30 AM 45.1°F7.3°C 26.6°F-3.0°C 48% 6.4 mph NW10.3 kmh NW 8.2 mph13.2 kmh 30.33 in1027.1 mb 0.00 in0.0 mm 0.00 in0.0 mm 0.00 in0.0 mm
01:45 AM 47.7°F8.7°C 25.7°F-3.5°C 42% 5.9 mph WNW9.5 kmh WNW 7.6 mph12.2 kmh 30.33 in1027.1 mb 0.00 in0.0 mm 0.00 in0.0 mm 0.00 in0.0 mm
02:00 AM 48.9°F9.4°C 25.0°F-3.9°C 39% 7.0 mph WNW11.3 kmh WNW 10.0 mph16.1 kmh 30.33 in1027.1 mb 0.00 in0.0 mm 0.00 in0.0 mm 0.00 in0.0 mm
02:15 AM 49.1°F9.5°C 24.6°F-4.1°C 38% 7.6 mph NW12.2 kmh NW 10.5 mph16.9 kmh 30.33 in1027.1 mb 0.00 in0.0 mm 0.00 in0.0 mm 0.00 in0.0 mm
02:45 AM 49.8°F9.9°C 24.6°F-4.1°C 37% 7.6 mph NW12.2 kmh NW 8.2 mph13.2 kmh 30.33 in1027.1 mb 0.00 in0.0 mm 0.00 in0.0 mm 0.00 in0.0 mm
03:00 AM 50.5°F10.3°C 24.5°F-4.2°C 36% 7.0 mph NW11.3 kmh NW 8.2 mph13.2 kmh 30.30 in1026.1 mb 0.00 in0.0 mm 0.00 in0.0 mm 0.00 in0.0 mm
03:30 AM 52.3°F11.3°C 21.8°F-5.7°C 30% 5.9 mph NW9.5 kmh NW 9.4 mph15.1 kmh 30.30 in1026.1 mb 0.00 in0.0 mm 0.00 in0.0 mm 0.00 in0.0 mm
03:45 AM 52.5°F11.4°C 22.7°F-5.2°C 31% 5.9 mph NW9.5 kmh NW 7.6 mph12.2 kmh 30.30 in1026.1 mb 0.00 in0.0 mm 0.00 in0.0 mm 0.00 in0.0 mm
04:00 AM 52.0°F11.1°C 22.2°F-5.4°C 31% 6.4 mph NW10.3 kmh NW 8.2 mph13.2 kmh 30.30 in1026.1 mb 0.00 in0.0 mm 0.00 in0.0 mm 0.00 in0.0 mm
04:15 AM 51.8°F11.0°C 22.1°F-5.5°C 31% 5.3 mph NW8.5 kmh NW 8.2 mph13.2 kmh 30.30 in1026.1 mb 0.00 in0.0 mm 0.00 in0.0 mm 0.00 in0.0 mm
04:30 AM 51.3°F10.7°C 23.1°F-4.9°C 33% 6.4 mph NW10.3 kmh NW 7.6 mph12.2 kmh 30.30 in1026.1 mb 0.00 in0.0 mm 0.00 in0.0 mm 0.00 in0.0 mm
04:45 AM 50.9°F10.5°C 23.5°F-4.7°C 34% 4.1 mph NW6.6 kmh NW 7.0 mph11.3 kmh 30.30 in1026.1 mb 0.00 in0.0 mm 0.00 in0.0 mm 0.00 in0.0 mm
05:00 AM 50.7°F10.4°C 23.3°F-4.8°C 34% 4.1 mph NW6.6 kmh NW 5.3 mph8.5 kmh 30.30 in1026.1 mb 0.00 in0.0 mm 0.00 in0.0 mm 0.00 in0.0 mm
05:15 AM 50.7°F10.4°C 23.3°F-4.8°C 34% 5.3 mph NW8.5 kmh NW 6.4 mph10.3 kmh 30.30 in1026.1 mb 0.00 in0.0 mm 0.00 in0.0 mm 0.00 in0.0 mm
05:30 AM 50.7°F10.4°C 23.3°F-4.8°C 34% 5.3 mph NW8.5 kmh NW 6.4 mph10.3 kmh 30.30 in1026.1 mb 0.00 in0.0 mm 0.00 in0.0 mm 0.00 in0.0 mm
05:45 AM 50.4°F10.2°C 23.7°F-4.6°C 35% 6.4 mph NW10.3 kmh NW 7.6 mph12.2 kmh 30.30 in1026.1 mb 0.00 in0.0 mm 0.00 in0.0 mm 0.00 in0.0 mm
06:00 AM 50.0°F10.0°C 24.1°F-4.4°C 36% 5.3 mph NW8.5 kmh NW 7.6 mph12.2 kmh 30.30 in1026.1 mb 0.00 in0.0 mm 0.00 in0.0 mm 0.00 in0.0 mm
06:15 AM 50.0°F10.0°C 24.1°F-4.4°C 36% 6.4 mph NW10.3 kmh NW 8.2 mph13.2 kmh 30.30 in1026.1 mb 0.00 in0.0 mm 0.00 in0.0 mm 0.00 in0.0 mm
06:30 AM 50.2°F10.1°C 24.2°F-4.3°C 36% 6.4 mph NW10.3 kmh NW 8.2 mph13.2 kmh 30.30 in1026.1 mb 0.00 in0.0 mm 0.00 in0.0 mm 0.00 in0.0 mm
06:45 AM 50.5°F10.3°C 23.9°F-4.5°C 35% 7.0 mph NW11.3 kmh NW 8.2 mph13.2 kmh 30.30 in1026.1 mb 0.00 in0.0 mm 0.00 in0.0 mm 0.00 in0.0 mm
07:00 AM 50.5°F10.3°C 24.5°F-4.2°C 36% 5.9 mph NW9.5 kmh NW 8.2 mph13.2 kmh 30.33 in1027.1 mb 0.00 in0.0 mm 0.00 in0.0 mm 0.00 in0.0 mm
07:15 AM 50.7°F10.4°C 24.0°F-4.4°C 35% 5.3 mph NW8.5 kmh NW 8.2 mph13.2 kmh 30.33 in1027.1 mb 0.00 in0.0 mm 0.00 in0.0 mm 0.00 in0.0 mm
07:30 AM 51.6°F10.9°C 24.1°F-4.4°C 34% 8.8 mph NW14.2 kmh NW 10.5 mph16.9 kmh 30.33 in1027.1 mb 0.00 in0.0 mm 0.00 in0.0 mm 0.00 in0.0 mm
07:45 AM 52.5°F11.4°C 24.2°F-4.3°C 33% 7.0 mph NW11.3 kmh NW 10.5 mph16.9 kmh 30.33 in1027.1 mb 0.00 in0.0 mm 0.00 in0.0 mm 0.00 in0.0 mm
08:00 AM 53.4°F11.9°C 25.0°F-3.9°C 33% 8.2 mph WNW13.2 kmh WNW 10.5 mph16.9 kmh 30.33 in1027.1 mb 0.00 in0.0 mm 0.00 in0.0 mm 0.00 in0.0 mm
08:15 AM 54.5°F12.5°C 24.4°F-4.2°C 31% 8.8 mph NW14.2 kmh NW 12.6 mph20.3 kmh 30.33 in1027.1 mb 0.00 in0.0 mm 0.00 in0.0 mm 0.00 in0.0 mm
08:30 AM 55.6°F13.1°C 23.8°F-4.6°C 29% 7.6 mph NW12.2 kmh NW 10.8 mph17.4 kmh 30.33 in1027.1 mb 0.00 in0.0 mm 0.00 in0.0 mm 0.00 in0.0 mm
08:45 AM 56.3°F13.5°C 24.4°F-4.2°C 29% 9.4 mph NW15.1 kmh NW 13.8 mph22.2 kmh 30.33 in1027.1 mb 0.00 in0.0 mm 0.00 in0.0 mm 0.00 in0.0 mm
09:00 AM 56.8°F13.8°C 24.0°F-4.4°C 28% 8.2 mph NW13.2 kmh NW 14.4 mph23.2 kmh 30.33 in1027.1 mb 0.00 in0.0 mm 0.00 in0.0 mm 0.00 in0.0 mm
09:15 AM 57.7°F14.3°C 23.9°F-4.5°C 27% 9.4 mph NW15.1 kmh NW 12.0 mph19.3 kmh 30.33 in1027.1 mb 0.00 in0.0 mm 0.00 in0.0 mm 0.00 in0.0 mm
09:30 AM 58.5°F14.7°C 24.6°F-4.1°C 27% 10.0 mph WNW16.1 kmh WNW 14.4 mph23.2 kmh 30.33 in1027.1 mb 0.00 in0.0 mm 0.00 in0.0 mm 0.00 in0.0 mm
09:45 AM 59.4°F15.2°C 24.4°F-4.2°C 26% 8.2 mph NW13.2 kmh NW 14.4 mph23.2 kmh 30.33 in1027.1 mb 0.00 in0.0 mm 0.00 in0.0 mm 0.00 in0.0 mm
10:00 AM 60.4°F15.8°C 25.4°F-3.7°C 26% 8.2 mph NW13.2 kmh NW 10.8 mph17.4 kmh 30.33 in1027.1 mb 0.00 in0.0 mm 0.00 in0.0 mm 0.00 in0.0 mm
10:15 AM 61.9°F16.6°C 25.6°F-3.6°C 25% 8.8 mph NW14.2 kmh NW 13.8 mph22.2 kmh 30.33 in1027.1 mb 0.00 in0.0 mm 0.00 in0.0 mm 0.00 in0.0 mm
10:30 AM 62.6°F17.0°C 26.2°F-3.2°C 25% 5.9 mph NW9.5 kmh NW 8.2 mph13.2 kmh 30.33 in1027.1 mb 0.00 in0.0 mm 0.00 in0.0 mm 0.00 in0.0 mm
10:45 AM 63.5°F17.5°C 27.0°F-2.8°C 25% 7.0 mph N11.3 kmh N 8.2 mph13.2 kmh 30.36 in1028.1 mb 0.00 in0.0 mm 0.00 in0.0 mm 0.00 in0.0 mm
11:00 AM 64.6°F18.1°C 26.9°F-2.8°C 24% 4.7 mph NW7.6 kmh NW 7.0 mph11.3 kmh 30.36 in1028.1 mb 0.00 in0.0 mm 0.00 in0.0 mm 0.00 in0.0 mm
11:15 AM 65.5°F18.6°C 27.7°F-2.4°C 24% 5.9 mph NNW9.5 kmh NNW 10.5 mph16.9 kmh 30.36 in1028.1 mb 0.00 in0.0 mm 0.00 in0.0 mm 0.00 in0.0 mm
11:30 AM 67.1°F19.5°C 26.9°F-2.8°C 22% 5.9 mph NE9.5 kmh NE 13.2 mph21.2 kmh 30.36 in1028.1 mb 0.00 in0.0 mm 0.00 in0.0 mm 0.00 in0.0 mm
11:45 AM 68.0°F20.0°C 27.7°F-2.4°C 22% 5.9 mph ENE9.5 kmh ENE 11.4 mph18.3 kmh 30.36 in1028.1 mb 0.00 in0.0 mm 0.00 in0.0 mm 0.00 in0.0 mm
12:00 PM 68.2°F20.1°C 27.9°F-2.3°C 22% 5.9 mph NE9.5 kmh NE 11.4 mph18.3 kmh 30.36 in1028.1 mb 0.00 in0.0 mm 0.00 in0.0 mm 0.00 in0.0 mm
12:15 PM 68.5°F20.3°C 28.2°F-2.1°C 22% 6.4 mph NE10.3 kmh NE 8.8 mph14.2 kmh 30.36 in1028.1 mb 0.00 in0.0 mm 0.00 in0.0 mm 0.00 in0.0 mm
12:30 PM 68.0°F20.0°C 27.7°F-2.4°C 22% 11.4 mph NE18.3 kmh NE 15.5 mph24.9 kmh 30.36 in1028.1 mb 0.00 in0.0 mm 0.00 in0.0 mm 0.00 in0.0 mm
12:45 PM 68.4°F20.2°C 25.7°F-3.5°C 20% 5.9 mph NE9.5 kmh NE 13.8 mph22.2 kmh 30.33 in1027.1 mb 0.00 in0.0 mm 0.00 in0.0 mm 0.00 in0.0 mm
01:00 PM 68.5°F20.3°C 28.2°F-2.1°C 22% 10.8 mph NE17.4 kmh NE 7.6 mph12.2 kmh 30.33 in1027.1 mb 0.00 in0.0 mm 0.00 in0.0 mm 0.00 in0.0 mm
01:15 PM 68.9°F20.5°C 26.1°F-3.3°C 20% 9.4 mph E15.1 kmh E 14.4 mph23.2 kmh 30.33 in1027.1 mb 0.00 in0.0 mm 0.00 in0.0 mm 0.00 in0.0 mm
01:30 PM 68.7°F20.4°C 26.0°F-3.3°C 20% 9.4 mph ENE15.1 kmh ENE 10.5 mph16.9 kmh 30.33 in1027.1 mb 0.00 in0.0 mm 0.00 in0.0 mm 0.00 in0.0 mm
01:45 PM 69.1°F20.6°C 26.3°F-3.2°C 20% 10.8 mph NE17.4 kmh NE 12.6 mph20.3 kmh 30.33 in1027.1 mb 0.00 in0.0 mm 0.00 in0.0 mm 0.00 in0.0 mm
02:00 PM 69.4°F20.8°C 26.6°F-3.0°C 20% 9.4 mph ENE15.1 kmh ENE 11.4 mph18.3 kmh 30.33 in1027.1 mb 0.00 in0.0 mm 0.00 in0.0 mm 0.00 in0.0 mm
02:15 PM 69.4°F20.8°C 22.7°F-5.2°C 17% 6.4 mph ENE10.3 kmh ENE 12.6 mph20.3 kmh 30.33 in1027.1 mb 0.00 in0.0 mm 0.00 in0.0 mm 0.00 in0.0 mm
02:30 PM 69.6°F20.9°C 22.8°F-5.1°C 17% 5.3 mph NE8.5 kmh NE 10.0 mph16.1 kmh 30.33 in1027.1 mb 0.00 in0.0 mm 0.00 in0.0 mm 0.00 in0.0 mm
02:45 PM 70.3°F21.3°C 26.1°F-3.3°C 19% 10.0 mph E16.1 kmh E 13.2 mph21.2 kmh 30.30 in1026.1 mb 0.00 in0.0 mm 0.00 in0.0 mm 0.00 in0.0 mm
03:00 PM 70.2°F21.2°C 23.3°F-4.8°C 17% 8.8 mph ENE14.2 kmh ENE 8.2 mph13.2 kmh 30.30 in1026.1 mb 0.00 in0.0 mm 0.00 in0.0 mm 0.00 in0.0 mm
03:15 PM 70.0°F21.1°C 23.1°F-4.9°C 17% 8.2 mph E13.2 kmh E 16.1 mph25.9 kmh 30.30 in1026.1 mb 0.00 in0.0 mm 0.00 in0.0 mm 0.00 in0.0 mm
03:30 PM 70.2°F21.2°C 23.3°F-4.8°C 17% 6.4 mph E10.3 kmh E 11.4 mph18.3 kmh 30.30 in1026.1 mb 0.00 in0.0 mm 0.00 in0.0 mm 0.00 in0.0 mm
03:45 PM 70.2°F21.2°C 25.9°F-3.4°C 19% 8.2 mph E13.2 kmh E 11.4 mph18.3 kmh 30.30 in1026.1 mb 0.00 in0.0 mm 0.00 in0.0 mm 0.00 in0.0 mm
04:00 PM 69.8°F21.0°C 23.0°F-5.0°C 17% 10.8 mph E17.4 kmh E 11.4 mph18.3 kmh 30.30 in1026.1 mb 0.00 in0.0 mm 0.00 in0.0 mm 0.00 in0.0 mm
04:15 PM 68.9°F20.5°C 22.2°F-5.4°C 17% 10.5 mph ESE16.9 kmh ESE 13.2 mph21.2 kmh 30.30 in1026.1 mb 0.00 in0.0 mm 0.00 in0.0 mm 0.00 in0.0 mm
04:30 PM 68.2°F20.1°C 21.7°F-5.7°C 17% 7.6 mph ENE12.2 kmh ENE 8.2 mph13.2 kmh 30.30 in1026.1 mb 0.00 in0.0 mm 0.00 in0.0 mm 0.00 in0.0 mm
04:45 PM 67.3°F19.6°C 20.9°F-6.2°C 17% 5.9 mph E9.5 kmh E 9.4 mph15.1 kmh 30.30 in1026.1 mb 0.00 in0.0 mm 0.00 in0.0 mm 0.00 in0.0 mm
05:00 PM 66.6°F19.2°C 20.3°F-6.5°C 17% 10.0 mph ESE16.1 kmh ESE 10.8 mph17.4 kmh 30.30 in1026.1 mb 0.00 in0.0 mm 0.00 in0.0 mm 0.00 in0.0 mm
05:15 PM 66.0°F18.9°C 21.2°F-6.0°C 18% 7.0 mph ESE11.3 kmh ESE 10.8 mph17.4 kmh 30.30 in1026.1 mb 0.00 in0.0 mm 0.00 in0.0 mm 0.00 in0.0 mm
05:30 PM 65.5°F18.6°C 20.8°F-6.2°C 18% 6.4 mph E10.3 kmh E 10.5 mph16.9 kmh 30.30 in1026.1 mb 0.00 in0.0 mm 0.00 in0.0 mm 0.00 in0.0 mm
05:45 PM 65.3°F18.5°C 20.7°F-6.3°C 18% 5.9 mph E9.5 kmh E 8.2 mph13.2 kmh 30.27 in1025.1 mb 0.00 in0.0 mm 0.00 in0.0 mm 0.00 in0.0 mm
06:00 PM 64.9°F18.3°C 20.4°F-6.4°C 18% 8.2 mph E13.2 kmh E 10.0 mph16.1 kmh 30.27 in1025.1 mb 0.00 in0.0 mm 0.00 in0.0 mm 0.00 in0.0 mm
06:15 PM 64.8°F18.2°C 20.2°F-6.6°C 18% Calm Calm 4.7 mph7.6 kmh 30.27 in1025.1 mb 0.00 in0.0 mm 0.00 in0.0 mm 0.00 in0.0 mm
06:30 PM 64.2°F17.9°C 19.8°F-6.8°C 18% Calm Calm 4.7 mph7.6 kmh 30.27 in1025.1 mb 0.00 in0.0 mm 0.00 in0.0 mm 0.00 in0.0 mm
06:45 PM 63.5°F17.5°C 19.2°F-7.1°C 18% Calm Calm -- 30.27 in1025.1 mb 0.00 in0.0 mm 0.00 in0.0 mm 0.00 in0.0 mm
07:00 PM 62.4°F16.9°C 19.6°F-6.9°C 19% Calm Calm -- 30.27 in1025.1 mb 0.00 in0.0 mm 0.00 in0.0 mm 0.00 in0.0 mm
07:15 PM 61.0°F16.1°C 18.4°F-7.6°C 19% Calm Calm 5.3 mph8.5 kmh 30.30 in1026.1 mb 0.00 in0.0 mm 0.00 in0.0 mm 0.00 in0.0 mm
07:30 PM 59.4°F15.2°C 20.5°F-6.4°C 22% 4.7 mph NW7.6 kmh NW 4.7 mph7.6 kmh 30.30 in1026.1 mb 0.00 in0.0 mm 0.00 in0.0 mm 0.00 in0.0 mm
07:45 PM 58.3°F14.6°C 21.6°F-5.8°C 24% 4.7 mph NW7.6 kmh NW 7.6 mph12.2 kmh 30.30 in1026.1 mb 0.00 in0.0 mm 0.00 in0.0 mm 0.00 in0.0 mm
08:00 PM 55.4°F13.0°C 21.9°F-5.6°C 27% 6.4 mph W10.3 kmh W 4.7 mph7.6 kmh 30.30 in1026.1 mb 0.00 in0.0 mm 0.00 in0.0 mm 0.00 in0.0 mm
08:15 PM 53.8°F12.1°C 22.2°F-5.4°C 29% 5.9 mph W9.5 kmh W 7.0 mph11.3 kmh 30.30 in1026.1 mb 0.00 in0.0 mm 0.00 in0.0 mm 0.00 in0.0 mm
08:30 PM 52.0°F11.1°C 23.0°F-5.0°C 32% 5.3 mph W8.5 kmh W 8.2 mph13.2 kmh 30.30 in1026.1 mb 0.00 in0.0 mm 0.00 in0.0 mm 0.00 in0.0 mm
08:45 PM 51.3°F10.7°C 23.1°F-4.9°C 33% 6.4 mph W10.3 kmh W 7.0 mph11.3 kmh 30.30 in1026.1 mb 0.00 in0.0 mm 0.00 in0.0 mm 0.00 in0.0 mm
09:00 PM 50.5°F10.3°C 23.2°F-4.9°C 34% 2.9 mph W4.7 kmh W 7.0 mph11.3 kmh 30.30 in1026.1 mb 0.00 in0.0 mm 0.00 in0.0 mm 0.00 in0.0 mm
09:15 PM 50.0°F10.0°C 22.7°F-5.2°C 34% 6.4 mph W10.3 kmh W 8.2 mph13.2 kmh 30.30 in1026.1 mb 0.00 in0.0 mm 0.00 in0.0 mm 0.00 in0.0 mm
09:30 PM 49.6°F9.8°C 23.1°F-4.9°C 35% 4.1 mph W6.6 kmh W 6.4 mph10.3 kmh 30.30 in1026.1 mb 0.00 in0.0 mm 0.00 in0.0 mm 0.00 in0.0 mm
09:45 PM 49.5°F9.7°C 23.6°F-4.7°C 36% 5.9 mph W9.5 kmh W 7.6 mph12.2 kmh 30.33 in1027.1 mb 0.00 in0.0 mm 0.00 in0.0 mm 0.00 in0.0 mm
10:00 PM 47.8°F8.8°C 23.4°F-4.8°C 38% 4.7 mph W7.6 kmh W 5.3 mph8.5 kmh 30.33 in1027.1 mb 0.00 in0.0 mm 0.00 in0.0 mm 0.00 in0.0 mm
10:15 PM 47.3°F8.5°C 22.9°F-5.1°C 38% 5.3 mph W8.5 kmh W 8.2 mph13.2 kmh 30.33 in1027.1 mb 0.00 in0.0 mm 0.00 in0.0 mm 0.00 in0.0 mm
10:30 PM 47.1°F8.4°C 22.8°F-5.1°C 38% 5.3 mph WNW8.5 kmh WNW 7.6 mph12.2 kmh 30.33 in1027.1 mb 0.00 in0.0 mm 0.00 in0.0 mm 0.00 in0.0 mm
10:45 PM 46.9°F8.3°C 22.6°F-5.2°C 38% 6.4 mph W10.3 kmh W 8.2 mph13.2 kmh 30.33 in1027.1 mb 0.00 in0.0 mm 0.00 in0.0 mm 0.00 in0.0 mm
11:00 PM 47.1°F8.4°C 22.8°F-5.1°C 38% 3.5 mph W5.6 kmh W 6.4 mph10.3 kmh 30.33 in1027.1 mb 0.00 in0.0 mm 0.00 in0.0 mm 0.00 in0.0 mm
11:15 PM 47.3°F8.5°C 22.3°F-5.4°C 37% 7.0 mph W11.3 kmh W 10.0 mph16.1 kmh 30.33 in1027.1 mb 0.00 in0.0 mm 0.00 in0.0 mm 0.00 in0.0 mm
11:30 PM 47.5°F8.6°C 22.5°F-5.3°C 37% 7.0 mph WNW11.3 kmh WNW 8.8 mph14.2 kmh 30.33 in1027.1 mb 0.00 in0.0 mm 0.00 in0.0 mm 0.00 in0.0 mm
11:45 PM 46.9°F8.3°C 22.0°F-5.6°C 37% 3.5 mph W5.6 kmh W 7.0 mph11.3 kmh 30.33 in1027.1 mb 0.00 in0.0 mm 0.00 in0.0 mm 0.00 in0.0 mm